Time;durP1;ratioP1;P1;durP2;ratioP2;P2;SDS_P1;SDS_P2;PMS_P1;PMS_P2;Temp;Humidity;BMP_temperature;BMP_pressure;BME280_temperature;BME280_humidity;BME280_pressure;Samples;Min_cycle;Max_cycle;Signal;HPM_P1;HPM_P2
2021/01/06 00:00:48;;;;;;;25.60;11.35;;;;;;;0.18;91.75;99059.13;1694827;83;21320;-82
2021/01/06 00:03:20;;;;;;;28.35;12.03;;;;;;;0.18;91.73;99065.09;1666398;85;21489;-81
2021/01/06 00:05:55;;;;;;;25.77;11.78;;;;;;;0.16;92.54;99074.84;1731981;81;21293;-84
2021/01/06 00:08:24;;;;;;;25.50;10.88;;;;;;;0.18;92.58;99062.54;1699361;82;21259;-80
2021/01/06 00:10:54;;;;;;;28.87;10.93;;;;;;;0.20;92.29;99070.24;1704096;81;21306;-82
2021/01/06 00:13:25;;;;;;;26.55;11.33;;;;;;;0.18;91.64;99068.94;1694182;81;21222;-81
2021/01/06 00:15:55;;;;;;;22.05;10.45;;;;;;;0.21;92.11;99074.93;1711666;82;21512;-81
2021/01/06 00:18:27;;;;;;;24.50;10.13;;;;;;;0.23;92.77;99079.65;1706509;82;21266;-82
2021/01/06 00:20:56;;;;;;;26.07;10.38;;;;;;;0.28;91.87;99080.56;1731738;79;21278;-82
2021/01/06 00:23:24;;;;;;;22.80;9.45;;;;;;;0.26;92.44;99074.17;1761762;79;21279;-83
2021/01/06 00:25:52;;;;;;;29.52;11.60;;;;;;;0.34;91.65;99074.30;1763149;79;21247;-82
2021/01/06 00:28:21;;;;;;;26.17;10.08;;;;;;;0.34;91.73;99071.31;1773572;78;21548;-80
2021/01/06 00:30:59;;;;;;;25.45;10.55;;;;;;;0.39;91.49;99073.50;1801390;78;21606;-81
2021/01/06 00:33:37;;;;;;;26.40;10.93;;;;;;;0.42;92.03;99079.50;1786989;78;21442;-81
2021/01/06 00:36:15;;;;;;;24.98;10.38;;;;;;;0.47;91.85;99076.18;1787217;80;21244;-83
2021/01/06 00:38:43;;;;;;;28.70;11.35;;;;;;;0.49;91.51;99083.89;1796997;78;21124;-81
2021/01/06 00:41:10;;;;;;;29.80;11.05;;;;;;;0.54;91.64;99086.96;1787527;78;21401;-81
2021/01/06 00:43:38;;;;;;;33.45;14.63;;;;;;;0.61;91.65;99090.46;1798447;78;21133;-80
2021/01/06 00:46:05;;;;;;;34.18;12.43;;;;;;;0.67;91.55;99098.65;1778088;78;21231;-81
2021/01/06 00:48:33;;;;;;;25.60;11.03;;;;;;;0.67;91.36;99103.77;1744884;80;21529;-82
2021/01/06 00:51:01;;;;;;;26.65;11.38;;;;;;;0.67;91.27;99102.06;1747196;81;21641;-82
2021/01/06 00:53:30;;;;;;;21.68;10.75;;;;;;;0.68;90.84;99106.78;1756395;81;21263;-84
2021/01/06 00:55:59;;;;;;;19.95;8.98;;;;;;;0.63;90.49;99109.68;1724450;80;21224;-84
2021/01/06 00:58:27;;;;;;;22.32;8.55;;;;;;;0.58;90.67;99107.91;1745301;80;21279;-83
2021/01/06 01:00:56;;;;;;;21.37;7.97;;;;;;;0.56;90.23;99106.18;1739902;80;21223;-84
2021/01/06 01:03:25;;;;;;;21.30;8.35;;;;;;;0.40;89.90;99105.08;1741763;78;21282;-84
2021/01/06 01:05:54;;;;;;;20.75;9.10;;;;;;;0.20;90.78;99103.48;1746673;81;21282;-84
2021/01/06 01:08:22;;;;;;;19.30;8.68;;;;;;;0.09;90.05;99112.23;1743910;79;21254;-85
2021/01/06 01:10:52;;;;;;;22.37;8.78;;;;;;;0.04;90.29;99118.98;1742378;79;21275;-84
2021/01/06 01:13:26;;;;;;;20.97;8.15;;;;;;;-0.01;90.27;99132.08;1737169;80;21136;-82
2021/01/06 01:15:57;;;;;;;20.62;8.63;;;;;;;-0.01;90.26;99136.77;1745533;78;21553;-82
2021/01/06 01:18:28;;;;;;;23.02;9.25;;;;;;;-0.01;90.68;99126.97;1763584;79;21219;-82
2021/01/06 01:20:58;;;;;;;19.80;8.37;;;;;;;0.00;90.31;99129.98;1745050;79;21110;-82
2021/01/06 01:23:29;;;;;;;24.00;10.38;;;;;;;-0.07;91.05;99143.47;1733622;79;21687;-82
2021/01/06 01:25:57;;;;;;;18.90;8.25;;;;;;;-0.06;90.56;99133.67;1731663;80;21282;-81
2021/01/06 01:28:27;;;;;;;21.73;8.90;;;;;;;-0.09;90.32;99146.42;1740858;81;21201;-79
2021/01/06 01:30:56;;;;;;;18.35;8.38;;;;;;;-0.14;90.21;99142.51;1733468;78;21290;-81
2021/01/06 01:33:26;;;;;;;16.77;8.35;;;;;;;-0.15;90.15;99132.25;1682499;83;21267;-83
2021/01/06 01:35:56;;;;;;;26.00;10.35;;;;;;;-0.15;90.67;99138.64;1687447;82;21263;-82
2021/01/06 01:38:29;;;;;;;20.17;9.10;;;;;;;-0.12;91.26;99120.79;1692198;81;21295;-82
2021/01/06 01:43:49;;;;;;;24.37;9.73;;;;;;;0.03;91.16;99109.57;1823572;75;22869;-81
2021/01/06 01:46:43;;;;;;;35.30;11.25;;;;;;;0.03;90.84;99114.69;1689545;77;21306;-81
2021/01/06 01:49:21;;;;;;;23.27;8.95;;;;;;;0.06;90.57;99115.14;1678253;83;21249;-80
2021/01/06 01:52:00;;;;;;;35.83;12.60;;;;;;;0.02;91.04;99108.26;1677558;83;21304;-83
2021/01/06 01:54:29;;;;;;;42.55;15.93;;;;;;;0.03;90.90;99103.18;1688157;80;21241;-80
2021/01/06 01:57:04;;;;;;;30.37;11.63;;;;;;;0.02;91.49;99098.03;1671939;83;21209;-81
2021/01/06 01:59:53;;;;;;;40.00;14.45;;;;;;;0.03;91.36;99097.22;1744123;76;23104;-80
2021/01/06 02:03:04;;;;;;;41.90;15.63;;;;;;;-0.03;91.65;99097.54;1694906;80;21169;-81
2021/01/06 02:08:33;;;;;;;25.95;10.85;;;;;;;-0.02;91.64;99100.55;1693059;80;22632;31
2021/01/06 02:17:18;;;;;;;23.25;10.18;;;;;;;-0.02;90.73;99093.28;1642870;85;21152;-81
2021/01/06 02:19:46;;;;;;;22.98;10.20;;;;;;;-0.01;91.62;99103.97;1645619;84;21149;-81
2021/01/06 02:22:19;;;;;;;30.02;10.68;;;;;;;-0.01;91.05;99103.97;1645371;85;21290;-82
2021/01/06 02:24:49;;;;;;;22.25;9.48;;;;;;;-0.03;90.98;99101.80;1656844;80;21324;-80
2021/01/06 02:27:19;;;;;;;26.90;10.58;;;;;;;-0.03;90.88;99105.63;1717486;79;21287;-80
2021/01/06 02:29:47;;;;;;;23.95;10.72;;;;;;;-0.08;90.84;99104.67;1714237;80;21163;-82
2021/01/06 02:32:27;;;;;;;31.50;13.70;;;;;;;-0.11;90.89;99106.77;1693123;78;21229;31
2021/01/06 02:34:55;;;;;;;25.82;11.60;;;;;;;-0.08;91.11;99104.67;1728512;80;21367;-81
2021/01/06 02:37:22;;;;;;;23.98;9.28;;;;;;;-0.08;91.30;99109.40;1714551;79;21339;-78
2021/01/06 02:39:51;;;;;;;25.72;10.30;;;;;;;-0.05;91.03;99113.27;1708215;80;21292;-81
2021/01/06 02:42:19;;;;;;;29.90;11.10;;;;;;;-0.07;91.37;99113.66;1711452;82;21306;-81
2021/01/06 02:44:46;;;;;;;28.50;11.10;;;;;;;-0.05;91.38;99123.91;1719457;83;21264;-82
2021/01/06 02:47:16;;;;;;;35.78;11.73;;;;;;;-0.02;91.15;99116.28;1712236;80;21168;-79
2021/01/06 02:49:45;;;;;;;23.12;9.90;;;;;;;0.00;90.75;99108.26;1683002;79;21269;-77
2021/01/06 02:52:27;;;;;;;35.60;11.90;;;;;;;-0.01;90.38;99110.35;1701838;80;21297;-84
2021/01/06 02:54:57;;;;;;;21.75;9.50;;;;;;;-0.02;90.17;99112.45;1697545;79;21250;31
2021/01/06 02:57:24;;;;;;;23.98;10.20;;;;;;;-0.08;90.12;99111.06;1693087;79;21139;-77
2021/01/06 02:59:52;;;;;;;22.00;9.90;;;;;;;-0.17;89.91;99107.09;1711157;81;21263;-82
2021/01/06 03:02:26;;;;;;;31.17;9.25;;;;;;;-0.26;90.08;99104.81;1718538;79;21196;31
2021/01/06 03:05:13;;;;;;;22.60;8.58;;;;;;;-0.38;89.66;99099.88;1687523;79;21173;-81
2021/01/06 03:07:42;;;;;;;22.75;9.35;;;;;;;-0.56;90.03;99096.13;1743940;79;21240;-82
2021/01/06 03:13:16;;;;;;;16.90;7.22;;;;;;;-0.62;90.34;99093.07;1705604;79;21162;-82
2021/01/06 03:15:44;;;;;;;18.30;7.67;;;;;;;-0.74;91.19;99087.69;1700671;81;21197;-80
2021/01/06 03:18:11;;;;;;;19.12;8.15;;;;;;;-0.73;90.83;99087.30;1693389;83;21722;-81
2021/01/06 03:20:42;;;;;;;19.23;8.15;;;;;;;-0.82;91.98;99076.08;1704979;82;21276;-81
2021/01/06 03:23:30;;;;;;;19.17;8.05;;;;;;;-0.84;92.73;99079.41;1699841;82;21252;-81
2021/01/06 03:26:02;;;;;;;18.90;8.75;;;;;;;-0.82;92.57;99076.47;1703254;83;21252;-81
2021/01/06 03:28:32;;;;;;;24.18;8.63;;;;;;;-0.77;92.86;99075.31;1702032;84;21547;-80
2021/01/06 03:31:04;;;;;;;18.30;8.33;;;;;;;-0.68;91.99;99069.09;1699303;84;21166;-81
2021/01/06 03:33:40;;;;;;;17.98;7.65;;;;;;;-0.69;92.55;99071.21;1705589;82;21257;-80
2021/01/06 03:36:14;;;;;;;25.62;8.85;;;;;;;-0.64;91.79;99070.48;1672695;84;21202;-81
2021/01/06 03:39:02;;;;;;;23.02;9.48;;;;;;;-0.66;92.95;99075.97;1701961;82;21257;-80
2021/01/06 03:41:31;;;;;;;21.40;9.28;;;;;;;-0.61;92.32;99083.28;1687340;81;21277;-80
2021/01/06 03:44:08;;;;;;;23.92;10.80;;;;;;;-0.60;92.44;99084.14;1674633;85;21320;-81
2021/01/06 03:46:46;;;;;;;23.10;9.63;;;;;;;-0.57;92.57;99082.08;1664274;86;21269;-81
2021/01/06 03:49:37;;;;;;;20.17;8.83;;;;;;;-0.57;93.09;99079.53;1675306;84;21226;-82
2021/01/06 03:55:50;;;;;;;21.55;7.92;;;;;;;-0.61;92.05;99079.45;1731995;79;21478;-82
2021/01/06 03:58:29;;;;;;;26.55;10.23;;;;;;;-0.63;92.56;99087.50;1735199;82;21397;-82
2021/01/06 04:01:17;;;;;;;26.55;9.15;;;;;;;-0.61;92.50;99087.11;1731154;83;21324;-82
2021/01/06 04:04:21;;;;;;;20.65;8.48;;;;;;;-0.61;92.22;99087.11;1757416;81;21184;-81
2021/01/06 04:06:52;;;;;;;24.45;9.93;;;;;;;-0.65;92.71;99074.27;1735913;83;21313;-80
2021/01/06 04:09:25;;;;;;;22.80;9.03;;;;;;;-0.65;92.41;99078.95;1738357;81;21178;-80
2021/01/06 04:12:07;;;;;;;27.13;9.70;;;;;;;-0.64;92.19;99083.24;1733625;82;21139;-81
2021/01/06 04:14:35;;;;;;;25.35;9.88;;;;;;;-0.61;91.88;99078.60;1736348;82;21481;-81
2021/01/06 04:17:17;;;;;;;25.70;9.93;;;;;;;-0.61;91.52;99080.73;1733454;83;21286;-82
2021/01/06 04:20:38;;;;;;;23.50;10.32;;;;;;;-0.61;91.62;99073.07;1828185;76;23079;-80
2021/01/06 04:23:11;;;;;;;26.45;9.30;;;;;;;-0.71;92.10;99067.34;1806360;78;21301;-81
2021/01/06 04:25:46;;;;;;;28.38;10.55;;;;;;;-0.72;91.29;99071.14;1808202;78;21280;-80
2021/01/06 04:28:19;;;;;;;26.40;10.38;;;;;;;-0.76;91.51;99069.36;1811707;78;21412;-80
2021/01/06 04:31:00;;;;;;;29.60;12.00;;;;;;;-0.77;91.24;99077.86;1813987;78;21238;-82
2021/01/06 04:33:53;;;;;;;29.37;11.12;;;;;;;-0.85;91.23;99076.42;1808164;78;21269;-79
2021/01/06 04:36:28;;;;;;;32.20;11.00;;;;;;;-0.92;92.02;99069.04;1810979;78;21240;-82
2021/01/06 04:39:01;;;;;;;24.30;9.63;;;;;;;-0.87;91.52;99073.84;1807087;78;21217;-81
2021/01/06 04:41:45;;;;;;;24.32;10.55;;;;;;;-0.93;92.59;99072.44;1803445;78;21209;-80
2021/01/06 04:44:32;;;;;;;20.92;9.55;;;;;;;-0.98;93.25;99071.89;1807734;78;21286;-81
2021/01/06 04:47:22;;;;;;;18.87;8.58;;;;;;;-0.93;92.22;99072.86;1800166;79;21118;-80
2021/01/06 04:50:27;;;;;;;19.12;9.18;;;;;;;-1.01;92.77;99079.08;1802946;78;21134;-81
2021/01/06 04:53:15;;;;;;;42.23;19.57;;;;;;;-1.06;92.70;99073.00;1798053;78;21275;-82
2021/01/06 04:56:00;;;;;;;27.10;13.03;;;;;;;-1.08;92.75;99070.41;1810462;78;21240;-82
2021/01/06 04:58:41;;;;;;;24.32;10.13;;;;;;;-1.05;92.48;99074.74;1800569;78;21291;-81
2021/01/06 05:01:32;;;;;;;22.30;9.50;;;;;;;-1.14;93.58;99075.81;1760940;81;21244;-81
2021/01/06 05:04:29;;;;;;;22.60;10.05;;;;;;;-1.15;93.31;99068.58;1751617;81;21244;-79
2021/01/06 05:07:22;;;;;;;24.47;11.20;;;;;;;-1.19;93.42;99070.63;1752172;81;21292;-81
2021/01/06 05:10:21;;;;;;;24.90;11.65;;;;;;;-1.12;93.55;99069.91;1743725;81;21331;-81
2021/01/06 05:12:53;;;;;;;30.88;13.08;;;;;;;-1.13;93.98;99073.30;1750230;81;21143;-81
2021/01/06 05:15:38;;;;;;;22.75;9.35;;;;;;;-1.16;94.16;99065.56;1741740;81;21190;-81
2021/01/06 05:18:06;;;;;;;22.58;9.63;;;;;;;-1.18;93.84;99077.42;1741792;81;21351;-79
2021/01/06 05:20:35;;;;;;;26.68;11.30;;;;;;;-1.23;93.22;99074.78;1724053;82;21217;-80
2021/01/06 05:23:05;;;;;;;24.45;11.90;;;;;;;-1.23;93.28;99087.97;1729751;82;21245;-79
2021/01/06 05:25:34;;;;;;;21.23;10.15;;;;;;;-1.31;93.63;99076.31;1726136;81;21286;-81
2021/01/06 05:28:02;;;;;;;23.65;9.88;;;;;;;-1.30;93.63;99084.81;1730662;79;21295;-82
2021/01/06 05:30:34;;;;;;;18.77;7.97;;;;;;;-1.26;93.35;99083.64;1738526;82;21304;-81
2021/01/06 05:33:09;;;;;;;26.20;11.90;;;;;;;-1.29;94.21;99085.28;1734235;82;21261;-80
2021/01/06 05:35:42;;;;;;;24.35;9.40;;;;;;;-1.24;93.99;99086.23;1734545;82;21309;-81
2021/01/06 05:38:29;;;;;;;20.88;8.48;;;;;;;-1.17;94.71;99082.11;1776756;79;22450;-82
2021/01/06 05:40:56;;;;;;;22.52;9.58;;;;;;;-1.26;94.95;99074.70;1742229;81;21256;-83
2021/01/06 05:43:39;;;;;;;20.80;8.73;;;;;;;-1.26;95.23;99073.86;1737045;82;21232;-82
2021/01/06 05:46:09;;;;;;;23.52;9.25;;;;;;;-1.26;95.08;99084.91;1737180;81;21296;-81
2021/01/06 05:48:58;;;;;;;20.43;8.33;;;;;;;-1.24;95.04;99077.30;1743380;82;21241;-81
2021/01/06 05:51:33;;;;;;;20.25;9.13;;;;;;;-1.21;95.00;99074.41;1743259;80;21960;-81
2021/01/06 05:54:24;;;;;;;22.73;9.15;;;;;;;-1.15;94.21;99066.03;1731131;82;21213;-82
2021/01/06 05:57:16;;;;;;;27.10;10.55;;;;;;;-1.17;95.37;99061.70;1738313;82;21249;-81
2021/01/06 05:59:51;;;;;;;22.73;8.35;;;;;;;-1.13;95.10;99052.89;1733637;82;21288;-82
2021/01/06 06:02:45;;;;;;;25.95;10.70;;;;;;;-1.11;95.03;99058.03;1745608;82;21264;-83
2021/01/06 06:05:36;;;;;;;20.65;9.08;;;;;;;-1.06;94.38;99071.30;1736369;82;21211;-81
2021/01/06 06:08:47;;;;;;;26.20;10.70;;;;;;;-1.10;94.81;99073.34;1715376;82;21292;-81
2021/01/06 06:12:15;;;;;;;20.27;9.23;;;;;;;-1.06;94.48;99081.52;1739516;81;21253;-82
2021/01/06 06:15:19;;;;;;;31.52;9.20;;;;;;;-1.09;94.68;99081.47;1730785;82;21296;-83
2021/01/06 06:18:18;;;;;;;20.70;8.53;;;;;;;-1.05;94.33;99083.25;1745133;82;21133;-82
2021/01/06 06:21:19;;;;;;;19.25;7.90;;;;;;;-1.02;94.76;99085.00;1688341;85;21130;-82
2021/01/06 06:24:17;;;;;;;22.15;9.23;;;;;;;-1.05;94.55;99078.14;1692946;83;21228;-81
2021/01/06 06:27:16;;;;;;;21.65;8.38;;;;;;;-1.07;94.58;99074.70;1661694;84;21311;-83
2021/01/06 06:30:08;;;;;;;22.87;9.35;;;;;;;-1.02;94.32;99078.62;1700011;84;21161;-82
2021/01/06 06:32:38;;;;;;;22.40;9.20;;;;;;;-1.02;94.44;99084.57;1698018;84;21598;-81
2021/01/06 06:35:22;;;;;;;22.95;8.23;;;;;;;-1.07;94.56;99088.73;1697636;83;21149;-83
2021/01/06 06:37:56;;;;;;;23.65;8.53;;;;;;;-1.05;94.51;99088.35;1679406;84;21341;-82
2021/01/06 06:40:25;;;;;;;30.37;10.13;;;;;;;-1.06;94.27;99101.07;1671299;86;21749;-81
2021/01/06 06:43:02;;;;;;;23.40;9.15;;;;;;;-1.09;94.95;99096.77;1673878;86;21292;-82
2021/01/06 06:45:44;;;;;;;24.07;9.10;;;;;;;-1.03;94.87;99103.70;1665098;85;21185;-80
2021/01/06 06:48:46;;;;;;;26.55;9.53;;;;;;;-1.04;94.67;99104.09;1672762;86;21320;-83
2021/01/06 06:51:31;;;;;;;35.65;10.60;;;;;;;-1.01;95.14;99113.11;1632036;86;21484;-82
2021/01/06 06:54:15;;;;;;;27.58;9.88;;;;;;;-0.91;94.84;99124.80;1670520;86;21300;-81
2021/01/06 06:57:03;;;;;;;26.82;9.25;;;;;;;-0.86;94.63;99118.08;1666771;86;22450;-80
2021/01/06 06:59:38;;;;;;;24.35;9.13;;;;;;;-0.86;94.57;99122.77;1664363;86;21300;-83
2021/01/06 07:02:06;;;;;;;29.30;11.38;;;;;;;-0.83;94.38;99120.29;1666290;83;21360;-81
2021/01/06 07:04:47;;;;;;;29.80;10.65;;;;;;;-0.84;94.73;99118.97;1673227;86;21297;-82
2021/01/06 07:07:46;;;;;;;24.50;8.33;;;;;;;-0.81;94.03;99125.02;1668131;84;21261;-83
2021/01/06 07:10:37;;;;;;;28.95;10.13;;;;;;;-0.84;94.25;99126.20;1670811;86;21296;-82
2021/01/06 07:13:08;;;;;;;30.08;10.35;;;;;;;-0.84;94.67;99131.73;1684204;85;22178;-82
2021/01/06 07:16:10;;;;;;;30.25;11.15;;;;;;;-0.91;94.75;99128.20;1672099;86;21312;-82
2021/01/06 07:18:46;;;;;;;22.60;9.08;;;;;;;-0.75;94.24;99138.75;1636796;87;21276;-81
2021/01/06 07:21:20;;;;;;;28.10;9.70;;;;;;;-0.72;94.52;99151.13;1670476;86;21320;-80
2021/01/06 07:23:56;;;;;;;30.57;10.32;;;;;;;-0.69;94.34;99160.57;1670257;86;21332;-82
2021/01/06 07:26:38;;;;;;;26.68;9.58;;;;;;;-0.66;94.19;99148.73;1666278;85;21119;-82
2021/01/06 07:29:19;;;;;;;29.87;12.40;;;;;;;-0.53;94.35;99142.59;1801292;79;23053;-79
2021/01/06 07:32:01;;;;;;;32.03;11.97;;;;;;;-0.54;94.29;99139.16;1805410;78;21253;-83
2021/01/06 07:34:51;;;;;;;28.47;9.60;;;;;;;-0.50;93.76;99147.33;1800490;78;21263;-80
2021/01/06 07:37:47;;;;;;;29.07;10.93;;;;;;;-0.54;94.07;99146.82;1803401;78;21596;-80
2021/01/06 07:40:32;;;;;;;28.62;9.28;;;;;;;-0.51;94.08;99148.59;1794285;78;21322;-80
2021/01/06 07:43:17;;;;;;;25.27;9.05;;;;;;;-0.47;94.06;99147.83;1769775;78;21149;-79
2021/01/06 07:46:00;;;;;;;27.85;9.63;;;;;;;-0.46;94.13;99149.53;1808182;78;21309;-81
2021/01/06 07:49:11;;;;;;;26.50;10.18;;;;;;;-0.48;94.19;99149.52;1801480;78;21267;-79
2021/01/06 07:52:16;;;;;;;33.83;10.60;;;;;;;-0.37;94.21;99151.00;1800254;78;21157;-80
2021/01/06 07:54:54;;;;;;;27.17;9.90;;;;;;;-0.32;93.80;99143.42;1802265;78;21221;-81
2021/01/06 07:57:45;;;;;;;34.83;11.55;;;;;;;-0.22;93.78;99137.64;1808635;78;21309;-78
2021/01/06 08:00:17;;;;;;;28.17;11.38;;;;;;;-0.18;93.60;99142.41;1799575;78;21255;-81
2021/01/06 08:05:34;;;;;;;21.85;9.38;;;;;;;-0.07;93.00;99134.10;1786912;78;22981;-79
2021/01/06 08:08:16;;;;;;;23.35;9.48;;;;;;;-0.11;93.31;99144.25;1771129;78;21259;-80
2021/01/06 08:10:46;;;;;;;23.22;9.35;;;;;;;-0.07;93.42;99139.22;1772828;80;21164;-82
2021/01/06 08:13:25;;;;;;;28.47;9.95;;;;;;;0.00;93.09;99135.09;1760306;79;21169;-81
2021/01/06 08:16:18;;;;;;;34.20;12.20;;;;;;;0.06;92.72;99139.43;1782016;79;21335;-81
2021/01/06 08:19:22;;;;;;;28.73;11.25;;;;;;;0.05;92.84;99146.24;1779172;79;21315;-83
2021/01/06 08:22:14;;;;;;;26.95;10.00;;;;;;;0.09;92.73;99144.19;1712382;82;21311;-80
2021/01/06 08:25:05;;;;;;;33.42;13.72;;;;;;;0.11;92.83;99150.19;1746701;81;21164;-81
2021/01/06 08:27:38;;;;;;;32.20;11.93;;;;;;;0.19;92.94;99148.63;1763070;81;21291;-81
2021/01/06 08:30:22;;;;;;;27.03;10.67;;;;;;;0.27;92.75;99144.92;1777530;79;21302;-82
2021/01/06 08:33:09;;;;;;;26.05;11.73;;;;;;;0.34;92.44;99149.74;1775944;79;21245;-80
2021/01/06 08:35:41;;;;;;;25.82;10.88;;;;;;;0.40;92.17;99143.45;1785691;79;21486;-82
2021/01/06 08:38:31;;;;;;;29.95;11.15;;;;;;;0.47;91.42;99151.64;1787474;79;21295;-82
2021/01/06 08:41:22;;;;;;;27.37;9.93;;;;;;;0.19;91.70;99123.05;1711623;83;21149;-79
2021/01/06 08:43:50;;;;;;;23.57;9.20;;;;;;;0.25;91.51;99151.70;1773387;79;21275;-81
2021/01/06 08:46:28;;;;;;;23.77;8.95;;;;;;;0.30;91.56;99149.22;1783861;79;21824;-80
2021/01/06 08:49:31;;;;;;;25.68;10.00;;;;;;;0.35;91.16;99145.05;1760827;81;21237;-80
2021/01/06 08:52:21;;;;;;;25.02;9.73;;;;;;;0.37;91.26;99145.94;1737774;81;21303;-81
2021/01/06 08:55:22;;;;;;;23.42;9.20;;;;;;;0.43;90.99;99144.76;1733540;81;21295;-81
2021/01/06 08:58:11;;;;;;;26.15;9.40;;;;;;;0.53;91.78;99141.50;1741712;81;21290;-81
2021/01/06 09:00:45;;;;;;;22.65;9.23;;;;;;;0.69;90.95;99139.20;1732731;82;21303;-81
2021/01/06 09:03:54;;;;;;;27.67;10.90;;;;;;;0.83;91.08;99143.24;1740780;81;21224;-82
2021/01/06 09:06:23;;;;;;;26.68;9.80;;;;;;;0.91;90.24;99139.94;1744040;81;21158;-81
2021/01/06 09:09:11;;;;;;;22.00;10.00;;;;;;;0.98;89.50;99143.05;1743129;81;21287;-82
2021/01/06 09:11:54;;;;;;;28.50;12.55;;;;;;;1.09;89.38;99141.05;1747253;81;21279;-82
2021/01/06 09:14:32;;;;;;;21.75;9.35;;;;;;;1.21;89.42;99130.96;1748483;81;21362;-83
2021/01/06 09:17:35;;;;;;;21.93;8.80;;;;;;;1.20;88.87;99133.09;1749658;81;21285;-83
2021/01/06 09:20:08;;;;;;;18.50;8.00;;;;;;;1.27;88.90;99132.31;1755544;81;21283;-84
2021/01/06 09:22:36;;;;;;;21.55;8.45;;;;;;;1.18;88.83;99124.53;1758140;81;21350;-82
2021/01/06 09:25:05;;;;;;;25.65;9.30;;;;;;;1.22;88.57;99127.58;1748079;81;21338;-82
2021/01/06 09:27:40;;;;;;;23.65;9.55;;;;;;;1.28;89.30;99126.80;1749739;79;21299;-85
2021/01/06 09:30:19;;;;;;;23.10;9.35;;;;;;;1.34;89.84;99126.44;1704851;78;21240;-82
2021/01/06 09:32:48;;;;;;;24.12;10.82;;;;;;;1.37;88.65;99126.50;1701465;83;21309;-82
2021/01/06 09:35:21;;;;;;;34.10;15.58;;;;;;;1.50;89.21;99127.92;1694876;83;21808;-82
2021/01/06 09:38:20;;;;;;;34.60;15.38;;;;;;;1.51;89.07;99125.38;1725346;83;21138;-85
2021/01/06 09:40:47;;;;;;;31.82;13.83;;;;;;;1.56;88.95;99122.86;1681819;82;21180;-83
2021/01/06 09:43:23;;;;;;;29.63;12.55;;;;;;;1.75;89.09;99122.23;1722792;82;21150;-84
2021/01/06 09:45:51;;;;;;;28.40;11.78;;;;;;;1.77;88.61;99123.11;1726406;83;21271;-82
2021/01/06 09:48:19;;;;;;;26.97;10.10;;;;;;;1.60;87.89;99118.21;1710096;84;21690;-84
2021/01/06 09:50:51;;;;;;;23.10;8.95;;;;;;;1.63;87.95;99124.63;1707558;81;21266;-83
2021/01/06 09:53:23;;;;;;;39.78;12.95;;;;;;;1.68;88.07;99111.89;1713388;82;21187;-83
2021/01/06 09:55:54;;;;;;;21.40;9.28;;;;;;;1.59;88.68;99108.39;1708180;83;21281;-83
2021/01/06 09:58:35;;;;;;;20.43;8.05;;;;;;;1.56;88.80;99104.92;1706284;82;21267;-83
2021/01/06 10:01:38;;;;;;;21.62;10.32;;;;;;;1.67;88.58;99095.66;1696952;83;21283;-81
2021/01/06 10:04:19;;;;;;;17.37;8.00;;;;;;;1.66;88.66;99095.21;1707573;82;21164;-82
2021/01/06 10:07:20;;;;;;;20.40;8.43;;;;;;;1.81;88.53;99087.23;1689665;84;21305;-84
2021/01/06 10:09:58;;;;;;;21.85;10.00;;;;;;;1.99;88.34;99082.30;1703714;83;21314;-84
2021/01/06 10:12:49;;;;;;;27.10;10.20;;;;;;;2.21;88.34;99086.31;1708850;83;21156;-84
2021/01/06 10:15:49;;;;;;;21.87;10.03;;;;;;;2.27;87.70;99072.25;1705293;83;21289;-84
2021/01/06 10:18:53;;;;;;;26.40;11.43;;;;;;;2.41;87.61;99074.92;1675629;85;21292;-83
2021/01/06 10:21:56;;;;;;;27.67;11.03;;;;;;;2.48;87.31;99060.88;1725957;78;21130;-87
2021/01/06 10:25:11;;;;;;;23.52;9.55;;;;;;;2.41;86.77;99057.84;1726452;82;21259;-83
2021/01/06 10:27:56;;;;;;;17.87;9.63;;;;;;;2.41;86.32;99062.98;1712448;82;21194;-83
2021/01/06 10:30:26;;;;;;;19.25;7.72;;;;;;;2.43;86.29;99059.12;1717726;79;21257;-84
2021/01/06 10:33:12;;;;;;;16.77;7.28;;;;;;;2.45;86.17;99054.45;1722381;82;21446;-83
2021/01/06 10:36:06;;;;;;;20.85;7.83;;;;;;;2.37;85.49;99049.27;1715578;82;21269;-83
2021/01/06 10:49:22;;;;;;;22.45;12.50;;;;;;;2.56;85.24;99016.86;1816161;77;28296;-86
2021/01/06 10:52:09;;;;;;;22.62;10.10;;;;;;;2.69;85.65;99006.69;1753772;77;21672;-87
2021/01/06 10:54:48;;;;;;;21.97;8.28;;;;;;;2.75;85.29;99008.00;1720506;81;21574;-84
2021/01/06 10:57:40;;;;;;;22.30;9.88;;;;;;;2.75;85.20;98997.30;1724848;82;21264;-83
2021/01/06 11:00:20;;;;;;;18.37;8.63;;;;;;;2.74;84.28;99001.13;1703343;80;21618;-83
2021/01/06 11:03:30;;;;;;;16.82;8.13;;;;;;;2.81;84.87;98997.76;1645011;82;21255;-91
2021/01/06 11:06:27;;;;;;;24.35;8.38;;;;;;;2.97;85.01;98999.53;1805807;78;22908;-88
2021/01/06 11:09:29;;;;;;;14.63;7.50;;;;;;;3.06;84.94;99000.41;1762899;78;21170;-91
2021/01/06 11:12:05;;;;;;;16.67;6.60;;;;;;;3.11;83.95;98987.17;1777430;79;21217;-84
2021/01/06 11:14:47;;;;;;;15.05;6.67;;;;;;;3.26;83.83;98978.20;1758102;79;21371;-89
2021/01/06 11:17:34;;;;;;;14.83;6.40;;;;;;;3.37;83.52;98970.54;1780277;80;21294;-82
2021/01/06 11:20:26;;;;;;;19.27;6.83;;;;;;;3.49;83.37;98963.28;1741630;81;21497;-83
2021/01/06 11:23:27;;;;;;;16.82;6.90;;;;;;;3.66;83.68;98962.88;1775841;80;21559;-83
2021/01/06 11:25:59;;;;;;;18.98;8.08;;;;;;;3.78;84.36;98960.73;1683058;83;21110;-83
2021/01/06 11:28:56;;;;;;;17.35;9.68;;;;;;;4.05;82.64;98960.28;1803800;78;23524;-91
2021/01/06 11:31:28;;;;;;;18.65;7.95;;;;;;;3.99;81.98;98957.28;1810287;77;21209;-84
2021/01/06 11:34:10;;;;;;;17.23;8.90;;;;;;;4.05;81.74;98946.13;1815153;78;21247;-86
2021/01/06 11:36:59;;;;;;;19.70;9.95;;;;;;;4.07;81.37;98950.41;1787747;78;21323;-90
2021/01/06 11:39:44;;;;;;;18.23;8.55;;;;;;;4.10;80.95;98951.70;1746779;78;21110;-89
2021/01/06 11:42:21;;;;;;;20.77;8.50;;;;;;;4.24;79.84;98952.97;1731678;81;21122;-84
2021/01/06 11:45:31;;;;;;;18.17;9.28;;;;;;;4.36;81.00;98954.66;1792814;78;21313;-84
2021/01/06 11:48:11;;;;;;;17.37;8.23;;;;;;;4.60;81.51;98943.88;1793712;78;22956;-86
2021/01/06 11:50:48;;;;;;;17.32;8.43;;;;;;;4.66;80.61;98941.28;1723392;79;21149;-84
2021/01/06 11:53:31;;;;;;;17.73;8.93;;;;;;;4.75;78.69;98928.34;1776446;78;21232;-85
2021/01/06 11:56:20;;;;;;;18.80;7.75;;;;;;;4.83;79.31;98931.73;1784468;77;21257;-84
2021/01/06 11:59:08;;;;;;;20.62;7.33;;;;;;;5.06;80.15;98927.77;1708514;83;21285;-83
2021/01/06 12:01:59;;;;;;;15.63;8.88;;;;;;;5.37;76.76;98927.16;1782658;79;21299;-84
2021/01/06 12:04:57;;;;;;;19.62;9.10;;;;;;;6.27;76.35;98932.44;1774538;79;21240;-85
2021/01/06 12:07:52;;;;;;;16.25;7.87;;;;;;;7.26;73.99;98925.63;1785307;79;21227;-84
2021/01/06 12:10:42;;;;;;;19.48;8.98;;;;;;;8.06;67.44;98932.13;1781219;79;21255;-84
2021/01/06 12:13:21;;;;;;;20.43;10.35;;;;;;;8.40;69.45;98934.09;1768887;80;21252;-85
2021/01/06 12:16:17;;;;;;;17.17;10.23;;;;;;;8.68;66.86;98933.14;1790158;79;21300;-84
2021/01/06 12:19:18;;;;;;;20.23;9.98;;;;;;;8.24;66.96;98939.16;1792898;79;22927;-85
2021/01/06 12:21:51;;;;;;;16.45;8.68;;;;;;;7.77;66.49;98942.95;1785408;80;21192;-84
2021/01/06 12:24:34;;;;;;;16.87;8.93;;;;;;;7.41;69.03;98943.09;1772842;80;21268;-83
2021/01/06 12:27:42;;;;;;;15.13;8.50;;;;;;;7.19;70.05;98942.09;1795485;79;21299;-84
2021/01/06 12:30:15;;;;;;;15.75;7.80;;;;;;;6.86;71.10;98939.52;1771543;80;21319;-83
2021/01/06 12:33:24;;;;;;;16.30;8.05;;;;;;;6.50;69.56;98946.38;1771858;79;21263;-82
2021/01/06 12:36:06;;;;;;;17.52;8.20;;;;;;;6.29;70.75;98944.05;1804212;79;21177;-83
2021/01/06 12:38:43;;;;;;;17.00;7.80;;;;;;;5.99;71.81;98930.57;1800848;78;23383;-84
2021/01/06 12:41:19;;;;;;;20.25;10.35;;;;;;;5.83;72.97;98927.23;1743630;82;21761;-83
2021/01/06 12:44:01;;;;;;;20.25;9.58;;;;;;;5.65;73.68;98928.66;1745156;82;21264;-84
2021/01/06 12:46:39;;;;;;;19.98;10.25;;;;;;;5.51;74.75;98937.78;1773847;81;21217;-84
2021/01/06 12:49:31;;;;;;;20.85;10.75;;;;;;;5.40;74.88;98935.73;1790520;78;23455;-86
2021/01/06 12:52:19;;;;;;;25.75;10.45;;;;;;;5.22;75.44;98922.09;1777558;79;21316;-82
2021/01/06 12:55:07;;;;;;;23.15;8.08;;;;;;;5.04;76.16;98924.79;1771239;79;21309;-82
2021/01/06 12:57:51;;;;;;;21.15;8.10;;;;;;;5.06;76.31;98935.94;1771986;79;21158;-89
2021/01/06 13:00:38;;;;;;;18.23;7.50;;;;;;;4.84;77.30;98931.33;1728457;79;21269;-83
2021/01/06 13:03:40;;;;;;;21.95;8.80;;;;;;;4.87;77.30;98929.57;1796187;79;21587;-81